Attica Junction, Ohio
Current Conditions -  °F | °C
As of 5:52 AM on Monday 22 Dec 2014 (Local Time) from KMFD Reporting Station
Haze Haze  
Wind Chill: -10°   Ceiling: Unl
Heat Index: -6°   Visibility: 6mi
Dew Point: -7°   Wind: 7mph
Humidity: 92%   Direction: 110°ESE
Pressure: 30.05"   Gusts: NA
Location:  41.0654°N, 82.876°W
Report Text: KMFD 221052Z AUTO 11006KT 6SM BR CLR M06/M07 A3005 RMK AO2 SLP193 T10561067
Loading
Personal Weather Stations






























Interactive Weather Map New forecast layout! Learn more

10-Day Weather Forecast

Advertisements
Track Severe Weather on mobile